sensor_id;sensor_type;location;lat;lon;timestamp;temperature;humidity
1025;DHT22;501;48.214;11.350;2022-12-20T00:00:53;0.50;58.50
1025;DHT22;501;48.214;11.350;2022-12-20T00:03:19;0.50;58.20
1025;DHT22;501;48.214;11.350;2022-12-20T00:05:45;0.50;58.20
1025;DHT22;501;48.214;11.350;2022-12-20T00:08:11;0.50;58.10
1025;DHT22;501;48.214;11.350;2022-12-20T00:10:38;0.50;58.00
1025;DHT22;501;48.214;11.350;2022-12-20T00:13:05;0.50;57.90
1025;DHT22;501;48.214;11.350;2022-12-20T00:15:31;0.50;58.50
1025;DHT22;501;48.214;11.350;2022-12-20T00:17:57;0.50;58.70
1025;DHT22;501;48.214;11.350;2022-12-20T00:20:23;0.50;58.80
1025;DHT22;501;48.214;11.350;2022-12-20T00:22:49;0.50;58.70
1025;DHT22;501;48.214;11.350;2022-12-20T00:25:14;0.50;58.70
1025;DHT22;501;48.214;11.350;2022-12-20T00:27:40;0.50;58.60
1025;DHT22;501;48.214;11.350;2022-12-20T00:30:06;0.50;58.60
1025;DHT22;501;48.214;11.350;2022-12-20T00:32:32;0.50;58.60
1025;DHT22;501;48.214;11.350;2022-12-20T00:34:58;0.50;58.70
1025;DHT22;501;48.214;11.350;2022-12-20T00:37:23;0.50;58.70
1025;DHT22;501;48.214;11.350;2022-12-20T00:39:49;0.50;58.70
1025;DHT22;501;48.214;11.350;2022-12-20T00:42:14;0.50;58.70
1025;DHT22;501;48.214;11.350;2022-12-20T00:44:40;0.50;58.60
1025;DHT22;501;48.214;11.350;2022-12-20T00:47:06;0.50;58.30
1025;DHT22;501;48.214;11.350;2022-12-20T00:49:31;0.50;58.70
1025;DHT22;501;48.214;11.350;2022-12-20T00:51:57;0.50;58.80
1025;DHT22;501;48.214;11.350;2022-12-20T00:54:23;0.50;58.80
1025;DHT22;501;48.214;11.350;2022-12-20T00:56:49;0.50;58.80
1025;DHT22;501;48.214;11.350;2022-12-20T00:59:14;0.60;58.90
1025;DHT22;501;48.214;11.350;2022-12-20T01:01:40;0.60;58.90
1025;DHT22;501;48.214;11.350;2022-12-20T01:04:06;0.60;58.90
1025;DHT22;501;48.214;11.350;2022-12-20T01:06:32;0.60;58.90
1025;DHT22;501;48.214;11.350;2022-12-20T01:08:58;0.60;58.90
1025;DHT22;501;48.214;11.350;2022-12-20T01:11:27;0.60;58.90
1025;DHT22;501;48.214;11.350;2022-12-20T01:13:55;0.60;58.90
1025;DHT22;501;48.214;11.350;2022-12-20T01:16:28;0.60;58.80
1025;DHT22;501;48.214;11.350;2022-12-20T01:18:54;0.60;58.80
1025;DHT22;501;48.214;11.350;2022-12-20T01:21:25;0.60;58.80
1025;DHT22;501;48.214;11.350;2022-12-20T01:23:51;0.60;58.70
1025;DHT22;501;48.214;11.350;2022-12-20T01:26:19;0.60;58.80
1025;DHT22;501;48.214;11.350;2022-12-20T01:28:48;0.60;58.80
1025;DHT22;501;48.214;11.350;2022-12-20T01:31:16;0.60;58.80
1025;DHT22;501;48.214;11.350;2022-12-20T01:33:42;0.60;58.80
1025;DHT22;501;48.214;11.350;2022-12-20T01:36:15;0.60;58.90
1025;DHT22;501;48.214;11.350;2022-12-20T01:38:41;0.60;58.90
1025;DHT22;501;48.214;11.350;2022-12-20T01:41:07;0.60;58.90
1025;DHT22;501;48.214;11.350;2022-12-20T01:43:54;0.60;58.90
1025;DHT22;501;48.214;11.350;2022-12-20T01:46:22;0.60;59.20
1025;DHT22;501;48.214;11.350;2022-12-20T01:49:09;0.60;59.40
1025;DHT22;501;48.214;11.350;2022-12-20T01:51:42;0.60;59.70
1025;DHT22;501;48.214;11.350;2022-12-20T01:56:49;0.60;60.90
1025;DHT22;501;48.214;11.350;2022-12-20T01:59:16;0.60;60.40
1025;DHT22;501;48.214;11.350;2022-12-20T02:01:42;0.70;60.50
1025;DHT22;501;48.214;11.350;2022-12-20T02:04:08;0.70;60.50
1025;DHT22;501;48.214;11.350;2022-12-20T02:06:34;0.70;60.60
1025;DHT22;501;48.214;11.350;2022-12-20T02:09:02;0.70;60.50
1025;DHT22;501;48.214;11.350;2022-12-20T02:17:13;0.70;60.00
1025;DHT22;501;48.214;11.350;2022-12-20T02:31:58;0.70;58.90
1025;DHT22;501;48.214;11.350;2022-12-20T02:34:25;0.70;59.00
1025;DHT22;501;48.214;11.350;2022-12-20T02:36:52;0.70;59.40
1025;DHT22;501;48.214;11.350;2022-12-20T02:39:18;0.70;59.50
1025;DHT22;501;48.214;11.350;2022-12-20T02:41:51;0.70;59.50
1025;DHT22;501;48.214;11.350;2022-12-20T02:44:20;0.70;59.60
1025;DHT22;501;48.214;11.350;2022-12-20T02:47:11;0.70;59.30
1025;DHT22;501;48.214;11.350;2022-12-20T02:49:38;0.70;59.00
1025;DHT22;501;48.214;11.350;2022-12-20T02:52:07;0.70;59.00
1025;DHT22;501;48.214;11.350;2022-12-20T02:54:34;0.70;59.00
1025;DHT22;501;48.214;11.350;2022-12-20T03:00:03;0.70;59.00
1025;DHT22;501;48.214;11.350;2022-12-20T03:02:30;0.70;59.00
1025;DHT22;501;48.214;11.350;2022-12-20T03:05:17;0.70;59.00
1025;DHT22;501;48.214;11.350;2022-12-20T03:07:44;0.70;59.00
1025;DHT22;501;48.214;11.350;2022-12-20T03:10:10;0.70;59.00
1025;DHT22;501;48.214;11.350;2022-12-20T03:12:35;0.70;59.00
1025;DHT22;501;48.214;11.350;2022-12-20T03:15:01;0.70;59.00
1025;DHT22;501;48.214;11.350;2022-12-20T03:17:27;0.70;59.00
1025;DHT22;501;48.214;11.350;2022-12-20T03:19:52;0.70;59.00
1025;DHT22;501;48.214;11.350;2022-12-20T03:22:18;0.70;59.10
1025;DHT22;501;48.214;11.350;2022-12-20T03:24:43;0.70;59.10
1025;DHT22;501;48.214;11.350;2022-12-20T03:27:09;0.70;59.30
1025;DHT22;501;48.214;11.350;2022-12-20T03:29:35;0.70;59.50
1025;DHT22;501;48.214;11.350;2022-12-20T03:32:01;0.70;59.50
1025;DHT22;501;48.214;11.350;2022-12-20T03:34:26;0.70;59.60
1025;DHT22;501;48.214;11.350;2022-12-20T03:36:52;0.70;60.20
1025;DHT22;501;48.214;11.350;2022-12-20T03:39:18;0.70;60.00
1025;DHT22;501;48.214;11.350;2022-12-20T03:41:43;0.70;60.30
1025;DHT22;501;48.214;11.350;2022-12-20T03:44:09;0.70;60.40
1025;DHT22;501;48.214;11.350;2022-12-20T03:46:34;0.80;60.60
1025;DHT22;501;48.214;11.350;2022-12-20T03:49:00;0.80;60.80
1025;DHT22;501;48.214;11.350;2022-12-20T03:51:26;0.80;60.90
1025;DHT22;501;48.214;11.350;2022-12-20T03:53:51;0.80;61.10
1025;DHT22;501;48.214;11.350;2022-12-20T03:56:17;0.80;61.20
1025;DHT22;501;48.214;11.350;2022-12-20T03:58:43;0.80;61.20
1025;DHT22;501;48.214;11.350;2022-12-20T04:01:19;0.80;61.20
1025;DHT22;501;48.214;11.350;2022-12-20T04:03:45;0.80;61.50
1025;DHT22;501;48.214;11.350;2022-12-20T04:06:11;0.80;61.60
1025;DHT22;501;48.214;11.350;2022-12-20T04:08:36;0.80;61.70
1025;DHT22;501;48.214;11.350;2022-12-20T04:11:02;0.80;61.80
1025;DHT22;501;48.214;11.350;2022-12-20T04:13:47;0.80;62.00
1025;DHT22;501;48.214;11.350;2022-12-20T04:16:16;0.80;62.10
1025;DHT22;501;48.214;11.350;2022-12-20T04:18:42;0.80;62.30
1025;DHT22;501;48.214;11.350;2022-12-20T04:21:14;0.80;62.50
1025;DHT22;501;48.214;11.350;2022-12-20T04:23:41;0.80;62.50
1025;DHT22;501;48.214;11.350;2022-12-20T04:26:08;0.80;62.30
1025;DHT22;501;48.214;11.350;2022-12-20T04:28:34;0.80;62.30
1025;DHT22;501;48.214;11.350;2022-12-20T04:31:01;0.80;62.30
1025;DHT22;501;48.214;11.350;2022-12-20T04:33:27;0.80;62.30
1025;DHT22;501;48.214;11.350;2022-12-20T04:35:55;0.90;62.20
1025;DHT22;501;48.214;11.350;2022-12-20T04:38:21;0.90;62.20
1025;DHT22;501;48.214;11.350;2022-12-20T04:40:49;0.90;61.90
1025;DHT22;501;48.214;11.350;2022-12-20T04:43:15;0.90;61.70
1025;DHT22;501;48.214;11.350;2022-12-20T04:45:41;0.90;61.40
1025;DHT22;501;48.214;11.350;2022-12-20T04:48:09;0.90;61.10
1025;DHT22;501;48.214;11.350;2022-12-20T04:50:34;0.90;61.20
1025;DHT22;501;48.214;11.350;2022-12-20T04:53:00;0.90;61.20
1025;DHT22;501;48.214;11.350;2022-12-20T04:55:44;0.90;61.20
1025;DHT22;501;48.214;11.350;2022-12-20T04:58:10;0.90;61.10
1025;DHT22;501;48.214;11.350;2022-12-20T05:00:35;0.90;60.90
1025;DHT22;501;48.214;11.350;2022-12-20T05:03:01;0.90;60.60
1025;DHT22;501;48.214;11.350;2022-12-20T05:05:27;0.90;60.40
1025;DHT22;501;48.214;11.350;2022-12-20T05:07:53;0.90;60.50
1025;DHT22;501;48.214;11.350;2022-12-20T05:10:19;0.90;60.30
1025;DHT22;501;48.214;11.350;2022-12-20T05:12:48;0.90;60.10
1025;DHT22;501;48.214;11.350;2022-12-20T05:15:13;0.90;60.10
1025;DHT22;501;48.214;11.350;2022-12-20T05:17:39;0.90;60.00
1025;DHT22;501;48.214;11.350;2022-12-20T05:20:05;0.90;59.20
1025;DHT22;501;48.214;11.350;2022-12-20T05:22:31;0.90;59.10
1025;DHT22;501;48.214;11.350;2022-12-20T05:25:15;0.90;59.10
1025;DHT22;501;48.214;11.350;2022-12-20T05:28:00;0.90;59.10
1025;DHT22;501;48.214;11.350;2022-12-20T05:30:26;0.90;59.10
1025;DHT22;501;48.214;11.350;2022-12-20T05:32:51;0.90;58.70
1025;DHT22;501;48.214;11.350;2022-12-20T05:35:17;0.90;58.70
1025;DHT22;501;48.214;11.350;2022-12-20T05:37:43;0.80;58.00
1025;DHT22;501;48.214;11.350;2022-12-20T05:40:10;0.80;57.70
1025;DHT22;501;48.214;11.350;2022-12-20T05:42:36;0.80;57.60
1025;DHT22;501;48.214;11.350;2022-12-20T05:45:02;0.80;57.30
1025;DHT22;501;48.214;11.350;2022-12-20T05:47:28;0.70;57.80
1025;DHT22;501;48.214;11.350;2022-12-20T05:49:58;0.70;57.20
1025;DHT22;501;48.214;11.350;2022-12-20T05:52:25;0.70;56.90
1025;DHT22;501;48.214;11.350;2022-12-20T05:54:50;0.60;56.60
1025;DHT22;501;48.214;11.350;2022-12-20T05:57:16;0.60;56.50
1025;DHT22;501;48.214;11.350;2022-12-20T05:59:42;0.60;56.90
1025;DHT22;501;48.214;11.350;2022-12-20T06:02:08;0.50;57.30
1025;DHT22;501;48.214;11.350;2022-12-20T06:04:35;0.50;57.70
1025;DHT22;501;48.214;11.350;2022-12-20T06:07:01;0.50;58.20
1025;DHT22;501;48.214;11.350;2022-12-20T06:09:27;0.50;59.40
1025;DHT22;501;48.214;11.350;2022-12-20T06:11:52;0.50;59.30
1025;DHT22;501;48.214;11.350;2022-12-20T06:14:18;0.50;59.60
1025;DHT22;501;48.214;11.350;2022-12-20T06:16:44;0.50;59.80
1025;DHT22;501;48.214;11.350;2022-12-20T06:19:09;0.60;60.00
1025;DHT22;501;48.214;11.350;2022-12-20T06:21:35;0.60;60.10
1025;DHT22;501;48.214;11.350;2022-12-20T06:24:00;0.60;60.40
1025;DHT22;501;48.214;11.350;2022-12-20T06:26:26;0.60;61.40
1025;DHT22;501;48.214;11.350;2022-12-20T06:28:52;0.60;61.50
1025;DHT22;501;48.214;11.350;2022-12-20T06:31:21;0.60;61.80
1025;DHT22;501;48.214;11.350;2022-12-20T06:33:46;0.60;62.30
1025;DHT22;501;48.214;11.350;2022-12-20T06:36:12;0.60;62.60
1025;DHT22;501;48.214;11.350;2022-12-20T06:38:38;0.60;62.90
1025;DHT22;501;48.214;11.350;2022-12-20T06:41:03;0.60;63.00
1025;DHT22;501;48.214;11.350;2022-12-20T06:43:29;0.60;62.80
1025;DHT22;501;48.214;11.350;2022-12-20T06:45:54;0.70;62.30
1025;DHT22;501;48.214;11.350;2022-12-20T06:48:20;0.70;62.00
1025;DHT22;501;48.214;11.350;2022-12-20T06:50:49;0.70;62.10
1025;DHT22;501;48.214;11.350;2022-12-20T06:53:14;0.70;62.30
1025;DHT22;501;48.214;11.350;2022-12-20T06:55:40;0.70;62.50
1025;DHT22;501;48.214;11.350;2022-12-20T06:58:06;0.70;62.80
1025;DHT22;501;48.214;11.350;2022-12-20T07:00:32;0.70;63.00
1025;DHT22;501;48.214;11.350;2022-12-20T07:02:57;0.70;63.10
1025;DHT22;501;48.214;11.350;2022-12-20T07:05:23;0.70;62.90
1025;DHT22;501;48.214;11.350;2022-12-20T07:07:49;0.70;62.80
1025;DHT22;501;48.214;11.350;2022-12-20T07:10:15;0.70;62.50
1025;DHT22;501;48.214;11.350;2022-12-20T07:12:41;0.70;62.50
1025;DHT22;501;48.214;11.350;2022-12-20T07:15:07;0.70;62.50
1025;DHT22;501;48.214;11.350;2022-12-20T07:17:33;0.80;62.70
1025;DHT22;501;48.214;11.350;2022-12-20T07:19:59;0.80;63.00
1025;DHT22;501;48.214;11.350;2022-12-20T07:22:24;0.80;63.40
1025;DHT22;501;48.214;11.350;2022-12-20T07:24:50;0.80;63.50
1025;DHT22;501;48.214;11.350;2022-12-20T07:27:15;0.80;63.80
1025;DHT22;501;48.214;11.350;2022-12-20T07:29:43;0.80;63.80
1025;DHT22;501;48.214;11.350;2022-12-20T07:32:10;0.80;63.90
1025;DHT22;501;48.214;11.350;2022-12-20T07:34:36;0.90;64.20
1025;DHT22;501;48.214;11.350;2022-12-20T07:37:02;0.90;64.50
1025;DHT22;501;48.214;11.350;2022-12-20T07:39:28;0.90;64.70
1025;DHT22;501;48.214;11.350;2022-12-20T07:41:54;0.90;64.80
1025;DHT22;501;48.214;11.350;2022-12-20T07:44:21;1.00;65.00
1025;DHT22;501;48.214;11.350;2022-12-20T07:46:47;1.00;65.10
1025;DHT22;501;48.214;11.350;2022-12-20T07:49:13;1.00;65.30
1025;DHT22;501;48.214;11.350;2022-12-20T07:51:51;1.10;65.50
1025;DHT22;501;48.214;11.350;2022-12-20T07:54:20;1.10;65.80
1025;DHT22;501;48.214;11.350;2022-12-20T07:56:50;1.10;66.10
1025;DHT22;501;48.214;11.350;2022-12-20T07:59:22;1.20;66.40
1025;DHT22;501;48.214;11.350;2022-12-20T08:01:49;1.20;66.70
1025;DHT22;501;48.214;11.350;2022-12-20T08:04:18;1.30;66.80
1025;DHT22;501;48.214;11.350;2022-12-20T08:06:45;1.30;66.80
1025;DHT22;501;48.214;11.350;2022-12-20T08:09:13;1.30;66.80
1025;DHT22;501;48.214;11.350;2022-12-20T08:11:42;1.40;66.80
1025;DHT22;501;48.214;11.350;2022-12-20T08:14:09;1.40;66.60
1025;DHT22;501;48.214;11.350;2022-12-20T08:16:35;1.40;66.50
1025;DHT22;501;48.214;11.350;2022-12-20T08:19:01;1.50;67.00
1025;DHT22;501;48.214;11.350;2022-12-20T08:21:26;1.50;67.30
1025;DHT22;501;48.214;11.350;2022-12-20T08:23:53;1.60;67.30
1025;DHT22;501;48.214;11.350;2022-12-20T08:26:19;1.60;67.40
1025;DHT22;501;48.214;11.350;2022-12-20T08:28:44;1.60;67.00
1025;DHT22;501;48.214;11.350;2022-12-20T08:31:11;1.70;67.00
1025;DHT22;501;48.214;11.350;2022-12-20T08:33:37;1.70;67.10
1025;DHT22;501;48.214;11.350;2022-12-20T08:36:07;1.70;67.10
1025;DHT22;501;48.214;11.350;2022-12-20T08:38:33;1.80;67.10
1025;DHT22;501;48.214;11.350;2022-12-20T08:41:11;1.80;67.40
1025;DHT22;501;48.214;11.350;2022-12-20T08:43:38;1.80;66.30
1025;DHT22;501;48.214;11.350;2022-12-20T08:46:04;1.90;66.00
1025;DHT22;501;48.214;11.350;2022-12-20T08:48:31;1.90;65.90
1025;DHT22;501;48.214;11.350;2022-12-20T08:51:07;1.90;65.70
1025;DHT22;501;48.214;11.350;2022-12-20T08:53:33;2.00;65.20
1025;DHT22;501;48.214;11.350;2022-12-20T08:56:11;2.00;65.00
1025;DHT22;501;48.214;11.350;2022-12-20T08:58:41;2.10;65.50
1025;DHT22;501;48.214;11.350;2022-12-20T09:01:10;2.10;64.10
1025;DHT22;501;48.214;11.350;2022-12-20T09:03:36;2.10;63.50
1025;DHT22;501;48.214;11.350;2022-12-20T09:06:07;2.20;63.10
1025;DHT22;501;48.214;11.350;2022-12-20T09:08:35;2.20;62.90
1025;DHT22;501;48.214;11.350;2022-12-20T09:11:30;2.30;62.00
1025;DHT22;501;48.214;11.350;2022-12-20T09:13:57;2.30;61.40
1025;DHT22;501;48.214;11.350;2022-12-20T09:16:25;2.40;61.10
1025;DHT22;501;48.214;11.350;2022-12-20T09:18:53;2.40;60.40
1025;DHT22;501;48.214;11.350;2022-12-20T09:21:19;2.50;60.50
1025;DHT22;501;48.214;11.350;2022-12-20T09:23:45;2.50;60.50
1025;DHT22;501;48.214;11.350;2022-12-20T09:26:13;2.60;60.50
1025;DHT22;501;48.214;11.350;2022-12-20T09:28:40;2.60;60.50
1025;DHT22;501;48.214;11.350;2022-12-20T09:31:09;2.60;59.90
1025;DHT22;501;48.214;11.350;2022-12-20T09:33:36;2.70;59.70
1025;DHT22;501;48.214;11.350;2022-12-20T09:36:02;2.70;60.00
1025;DHT22;501;48.214;11.350;2022-12-20T09:38:29;2.80;60.40
1025;DHT22;501;48.214;11.350;2022-12-20T09:41:02;2.80;60.80
1025;DHT22;501;48.214;11.350;2022-12-20T09:43:28;2.80;60.80
1025;DHT22;501;48.214;11.350;2022-12-20T09:45:57;2.90;60.80
1025;DHT22;501;48.214;11.350;2022-12-20T09:48:32;2.90;60.80
1025;DHT22;501;48.214;11.350;2022-12-20T09:54:00;3.00;60.20
1025;DHT22;501;48.214;11.350;2022-12-20T09:59:43;3.00;59.30
1025;DHT22;501;48.214;11.350;2022-12-20T10:02:11;3.00;59.90
1025;DHT22;501;48.214;11.350;2022-12-20T10:04:36;3.00;60.20
1025;DHT22;501;48.214;11.350;2022-12-20T10:10:35;3.10;59.70
1025;DHT22;501;48.214;11.350;2022-12-20T10:15:39;3.20;59.40
1025;DHT22;501;48.214;11.350;2022-12-20T10:21:20;3.20;60.70
1025;DHT22;501;48.214;11.350;2022-12-20T10:23:57;3.30;61.10
1025;DHT22;501;48.214;11.350;2022-12-20T10:26:25;3.30;61.10
1025;DHT22;501;48.214;11.350;2022-12-20T10:28:50;3.30;60.30
1025;DHT22;501;48.214;11.350;2022-12-20T10:31:17;3.40;59.90
1025;DHT22;501;48.214;11.350;2022-12-20T10:33:44;3.40;59.50
1025;DHT22;501;48.214;11.350;2022-12-20T10:36:28;3.40;59.20
1025;DHT22;501;48.214;11.350;2022-12-20T10:38:56;3.40;58.80
1025;DHT22;501;48.214;11.350;2022-12-20T10:41:28;3.40;58.40
1025;DHT22;501;48.214;11.350;2022-12-20T10:46:24;3.50;58.10
1025;DHT22;501;48.214;11.350;2022-12-20T10:49:20;3.50;58.20
1025;DHT22;501;48.214;11.350;2022-12-20T10:51:53;3.50;58.20
1025;DHT22;501;48.214;11.350;2022-12-20T10:54:32;3.50;57.80
1025;DHT22;501;48.214;11.350;2022-12-20T10:57:11;3.50;57.80
1025;DHT22;501;48.214;11.350;2022-12-20T10:59:41;3.50;58.20
1025;DHT22;501;48.214;11.350;2022-12-20T11:02:34;3.50;58.20
1025;DHT22;501;48.214;11.350;2022-12-20T11:05:20;3.50;58.30
1025;DHT22;501;48.214;11.350;2022-12-20T11:07:56;3.60;58.10
1025;DHT22;501;48.214;11.350;2022-12-20T11:10:27;3.60;57.70
1025;DHT22;501;48.214;11.350;2022-12-20T11:12:57;3.60;57.30
1025;DHT22;501;48.214;11.350;2022-12-20T11:15:29;3.70;57.80
1025;DHT22;501;48.214;11.350;2022-12-20T11:26:10;3.90;57.40
1025;DHT22;501;48.214;11.350;2022-12-20T11:34:42;4.20;56.70
1025;DHT22;501;48.214;11.350;2022-12-20T11:37:20;4.30;56.10
1025;DHT22;501;48.214;11.350;2022-12-20T11:42:56;4.40;54.30
1025;DHT22;501;48.214;11.350;2022-12-20T11:51:00;4.50;53.20
1025;DHT22;501;48.214;11.350;2022-12-20T11:56:01;4.60;53.00
1025;DHT22;501;48.214;11.350;2022-12-20T11:58:38;4.60;53.00
1025;DHT22;501;48.214;11.350;2022-12-20T12:01:10;4.60;52.80
1025;DHT22;501;48.214;11.350;2022-12-20T12:03:40;4.60;53.50
1025;DHT22;501;48.214;11.350;2022-12-20T12:06:20;4.70;53.90
1025;DHT22;501;48.214;11.350;2022-12-20T12:11:42;4.70;53.90
1025;DHT22;501;48.214;11.350;2022-12-20T12:14:29;4.70;53.10
1025;DHT22;501;48.214;11.350;2022-12-20T12:17:07;4.60;52.60
1025;DHT22;501;48.214;11.350;2022-12-20T12:19:35;4.60;52.50
1025;DHT22;501;48.214;11.350;2022-12-20T12:22:06;4.60;53.90
1025;DHT22;501;48.214;11.350;2022-12-20T12:24:39;4.60;53.90
1025;DHT22;501;48.214;11.350;2022-12-20T12:27:14;4.60;54.60
1025;DHT22;501;48.214;11.350;2022-12-20T12:29:44;4.70;55.30
1025;DHT22;501;48.214;11.350;2022-12-20T12:35:04;4.80;54.10
1025;DHT22;501;48.214;11.350;2022-12-20T12:37:45;4.80;54.10
1025;DHT22;501;48.214;11.350;2022-12-20T12:40:43;4.80;54.40
1025;DHT22;501;48.214;11.350;2022-12-20T12:45:47;4.80;54.10
1025;DHT22;501;48.214;11.350;2022-12-20T12:50:54;4.80;54.10
1025;DHT22;501;48.214;11.350;2022-12-20T12:53:25;4.80;54.10
1025;DHT22;501;48.214;11.350;2022-12-20T12:55:54;4.80;54.10
1025;DHT22;501;48.214;11.350;2022-12-20T13:01:01;4.70;54.10
1025;DHT22;501;48.214;11.350;2022-12-20T13:03:44;4.60;54.00
1025;DHT22;501;48.214;11.350;2022-12-20T13:11:49;4.50;55.10
1025;DHT22;501;48.214;11.350;2022-12-20T13:16:51;4.40;56.00
1025;DHT22;501;48.214;11.350;2022-12-20T13:21:55;4.40;56.50
1025;DHT22;501;48.214;11.350;2022-12-20T13:40:43;4.40;56.80
1025;DHT22;501;48.214;11.350;2022-12-20T13:43:32;4.40;57.00
1025;DHT22;501;48.214;11.350;2022-12-20T13:48:46;4.30;56.70
1025;DHT22;501;48.214;11.350;2022-12-20T13:51:25;4.30;56.60
1025;DHT22;501;48.214;11.350;2022-12-20T13:53:55;4.30;57.10
1025;DHT22;501;48.214;11.350;2022-12-20T13:59:03;4.30;57.70
1025;DHT22;501;48.214;11.350;2022-12-20T14:01:29;4.30;58.10
1025;DHT22;501;48.214;11.350;2022-12-20T14:04:03;4.30;58.80
1025;DHT22;501;48.214;11.350;2022-12-20T14:06:33;4.30;59.80
1025;DHT22;501;48.214;11.350;2022-12-20T14:08:59;4.40;60.10
1025;DHT22;501;48.214;11.350;2022-12-20T14:11:26;4.50;60.10
1025;DHT22;501;48.214;11.350;2022-12-20T14:13:59;4.50;59.40
1025;DHT22;501;48.214;11.350;2022-12-20T14:16:26;4.60;58.80
1025;DHT22;501;48.214;11.350;2022-12-20T14:21:21;4.60;57.70
1025;DHT22;501;48.214;11.350;2022-12-20T14:23:49;4.60;57.20
1025;DHT22;501;48.214;11.350;2022-12-20T14:26:29;4.60;57.00
1025;DHT22;501;48.214;11.350;2022-12-20T14:28:56;4.50;56.70
1025;DHT22;501;48.214;11.350;2022-12-20T14:36:38;4.30;57.80
1025;DHT22;501;48.214;11.350;2022-12-20T14:39:31;4.20;58.30
1025;DHT22;501;48.214;11.350;2022-12-20T14:44:27;4.10;59.80
1025;DHT22;501;48.214;11.350;2022-12-20T14:46:58;4.10;60.50
1025;DHT22;501;48.214;11.350;2022-12-20T14:49:33;4.00;60.60
1025;DHT22;501;48.214;11.350;2022-12-20T14:58:32;3.90;60.70
1025;DHT22;501;48.214;11.350;2022-12-20T15:01:23;3.90;60.70
1025;DHT22;501;48.214;11.350;2022-12-20T15:03:54;3.90;61.30
1025;DHT22;501;48.214;11.350;2022-12-20T15:06:44;3.90;61.60
1025;DHT22;501;48.214;11.350;2022-12-20T15:09:10;3.80;61.60
1025;DHT22;501;48.214;11.350;2022-12-20T15:11:36;3.80;61.50
1025;DHT22;501;48.214;11.350;2022-12-20T15:14:34;3.80;61.60
1025;DHT22;501;48.214;11.350;2022-12-20T15:17:13;3.70;61.50
1025;DHT22;501;48.214;11.350;2022-12-20T15:19:40;3.70;61.50
1025;DHT22;501;48.214;11.350;2022-12-20T15:22:13;3.70;61.50
1025;DHT22;501;48.214;11.350;2022-12-20T15:24:40;3.60;61.40
1025;DHT22;501;48.214;11.350;2022-12-20T15:27:12;3.60;62.20
1025;DHT22;501;48.214;11.350;2022-12-20T15:29:38;3.60;62.30
1025;DHT22;501;48.214;11.350;2022-12-20T15:32:24;3.60;62.60
1025;DHT22;501;48.214;11.350;2022-12-20T15:34:53;3.60;63.40
1025;DHT22;501;48.214;11.350;2022-12-20T15:37:19;3.50;63.90
1025;DHT22;501;48.214;11.350;2022-12-20T15:39:45;3.50;64.40
1025;DHT22;501;48.214;11.350;2022-12-20T15:42:15;3.50;64.80
1025;DHT22;501;48.214;11.350;2022-12-20T15:44:41;3.50;64.50
1025;DHT22;501;48.214;11.350;2022-12-20T15:47:11;3.40;64.60
1025;DHT22;501;48.214;11.350;2022-12-20T15:49:37;3.40;65.20
1025;DHT22;501;48.214;11.350;2022-12-20T15:52:03;3.40;65.20
1025;DHT22;501;48.214;11.350;2022-12-20T15:54:31;3.40;65.10
1025;DHT22;501;48.214;11.350;2022-12-20T15:57:00;3.40;65.70
1025;DHT22;501;48.214;11.350;2022-12-20T15:59:32;3.40;66.20
1025;DHT22;501;48.214;11.350;2022-12-20T16:01:57;3.30;66.90
1025;DHT22;501;48.214;11.350;2022-12-20T16:04:23;3.30;67.90
1025;DHT22;501;48.214;11.350;2022-12-20T16:06:49;3.30;68.50
1025;DHT22;501;48.214;11.350;2022-12-20T16:09:18;3.30;69.20
1025;DHT22;501;48.214;11.350;2022-12-20T16:11:44;3.20;69.40
1025;DHT22;501;48.214;11.350;2022-12-20T16:14:15;3.20;69.40
1025;DHT22;501;48.214;11.350;2022-12-20T16:16:41;3.20;69.40
1025;DHT22;501;48.214;11.350;2022-12-20T16:19:08;3.20;69.00
1025;DHT22;501;48.214;11.350;2022-12-20T16:21:42;3.20;69.40
1025;DHT22;501;48.214;11.350;2022-12-20T16:24:12;3.20;69.30
1025;DHT22;501;48.214;11.350;2022-12-20T16:26:38;3.20;69.20
1025;DHT22;501;48.214;11.350;2022-12-20T16:29:04;3.10;68.50
1025;DHT22;501;48.214;11.350;2022-12-20T16:31:32;3.20;67.60
1025;DHT22;501;48.214;11.350;2022-12-20T16:34:00;3.10;67.60
1025;DHT22;501;48.214;11.350;2022-12-20T16:36:27;3.10;67.80
1025;DHT22;501;48.214;11.350;2022-12-20T16:38:54;3.10;68.00
1025;DHT22;501;48.214;11.350;2022-12-20T16:41:22;3.10;67.90
1025;DHT22;501;48.214;11.350;2022-12-20T16:43:49;3.10;68.30
1025;DHT22;501;48.214;11.350;2022-12-20T16:46:18;3.10;68.30
1025;DHT22;501;48.214;11.350;2022-12-20T16:48:44;3.10;68.80
1025;DHT22;501;48.214;11.350;2022-12-20T16:51:25;3.10;68.90
1025;DHT22;501;48.214;11.350;2022-12-20T16:53:52;3.00;68.40
1025;DHT22;501;48.214;11.350;2022-12-20T16:56:19;3.00;68.50
1025;DHT22;501;48.214;11.350;2022-12-20T16:58:45;3.00;68.50
1025;DHT22;501;48.214;11.350;2022-12-20T17:01:19;3.00;68.50
1025;DHT22;501;48.214;11.350;2022-12-20T17:03:45;3.00;68.00
1025;DHT22;501;48.214;11.350;2022-12-20T17:06:12;3.00;68.00
1025;DHT22;501;48.214;11.350;2022-12-20T17:08:38;3.00;68.00
1025;DHT22;501;48.214;11.350;2022-12-20T17:13:47;3.00;69.10
1025;DHT22;501;48.214;11.350;2022-12-20T17:16:14;3.00;69.20
1025;DHT22;501;48.214;11.350;2022-12-20T17:18:40;2.90;69.40
1025;DHT22;501;48.214;11.350;2022-12-20T17:21:34;2.90;69.40
1025;DHT22;501;48.214;11.350;2022-12-20T17:24:01;2.90;69.10
1025;DHT22;501;48.214;11.350;2022-12-20T17:26:29;3.00;69.20
1025;DHT22;501;48.214;11.350;2022-12-20T17:28:55;2.90;69.10
1025;DHT22;501;48.214;11.350;2022-12-20T17:31:35;2.90;69.10
1025;DHT22;501;48.214;11.350;2022-12-20T17:34:06;3.00;69.20
1025;DHT22;501;48.214;11.350;2022-12-20T17:36:37;2.90;69.30
1025;DHT22;501;48.214;11.350;2022-12-20T17:39:03;3.00;69.80
1025;DHT22;501;48.214;11.350;2022-12-20T17:41:30;2.90;70.00
1025;DHT22;501;48.214;11.350;2022-12-20T17:43:59;3.00;70.30
1025;DHT22;501;48.214;11.350;2022-12-20T17:46:25;3.00;70.30
1025;DHT22;501;48.214;11.350;2022-12-20T17:48:51;3.00;70.80
1025;DHT22;501;48.214;11.350;2022-12-20T17:51:26;2.90;70.80
1025;DHT22;501;48.214;11.350;2022-12-20T17:53:54;2.90;70.30
1025;DHT22;501;48.214;11.350;2022-12-20T17:56:26;2.90;69.90
1025;DHT22;501;48.214;11.350;2022-12-20T17:58:52;2.90;69.20
1025;DHT22;501;48.214;11.350;2022-12-20T18:01:19;2.90;69.30
1025;DHT22;501;48.214;11.350;2022-12-20T18:03:48;2.90;69.70
1025;DHT22;501;48.214;11.350;2022-12-20T18:06:14;2.90;70.50
1025;DHT22;501;48.214;11.350;2022-12-20T18:08:40;2.90;70.80
1025;DHT22;501;48.214;11.350;2022-12-20T18:11:09;2.90;70.60
1025;DHT22;501;48.214;11.350;2022-12-20T18:13:35;2.90;71.90
1025;DHT22;501;48.214;11.350;2022-12-20T18:16:05;2.90;71.40
1025;DHT22;501;48.214;11.350;2022-12-20T18:18:33;2.90;72.00
1025;DHT22;501;48.214;11.350;2022-12-20T18:21:08;2.90;72.50
1025;DHT22;501;48.214;11.350;2022-12-20T18:23:36;2.90;73.00
1025;DHT22;501;48.214;11.350;2022-12-20T18:28:43;2.90;72.60
1025;DHT22;501;48.214;11.350;2022-12-20T18:31:13;2.90;73.10
1025;DHT22;501;48.214;11.350;2022-12-20T18:33:39;2.90;73.30
1025;DHT22;501;48.214;11.350;2022-12-20T18:36:10;2.90;73.20
1025;DHT22;501;48.214;11.350;2022-12-20T18:38:38;2.90;73.20
1025;DHT22;501;48.214;11.350;2022-12-20T18:41:06;2.90;73.40
1025;DHT22;501;48.214;11.350;2022-12-20T18:43:33;2.90;73.60